sensor_id;sensor_type;location;lat;lon;timestamp;P1;durP1;ratioP1;P2;durP2;ratioP2
9960;SDS011;5021;51.506;11.320;2024-01-30T00:01:49;20.30;;;13.93;;
9960;SDS011;5021;51.506;11.320;2024-01-30T00:04:15;17.37;;;13.27;;
9960;SDS011;5021;51.506;11.320;2024-01-30T00:06:41;23.03;;;16.57;;
9960;SDS011;5021;51.506;11.320;2024-01-30T00:09:07;24.07;;;16.57;;
9960;SDS011;5021;51.506;11.320;2024-01-30T00:11:34;20.53;;;14.20;;
9960;SDS011;5021;51.506;11.320;2024-01-30T00:14:00;21.30;;;15.70;;
9960;SDS011;5021;51.506;11.320;2024-01-30T00:16:26;20.67;;;14.37;;
9960;SDS011;5021;51.506;11.320;2024-01-30T00:18:52;20.70;;;15.60;;
9960;SDS011;5021;51.506;11.320;2024-01-30T00:21:18;18.90;;;14.63;;
9960;SDS011;5021;51.506;11.320;2024-01-30T00:23:44;16.90;;;12.57;;
9960;SDS011;5021;51.506;11.320;2024-01-30T00:26:10;17.97;;;13.67;;
9960;SDS011;5021;51.506;11.320;2024-01-30T00:28:40;18.13;;;13.30;;
9960;SDS011;5021;51.506;11.320;2024-01-30T00:31:06;15.33;;;11.90;;
9960;SDS011;5021;51.506;11.320;2024-01-30T00:33:31;15.90;;;12.13;;
9960;SDS011;5021;51.506;11.320;2024-01-30T00:35:57;20.97;;;15.00;;
9960;SDS011;5021;51.506;11.320;2024-01-30T00:38:23;16.57;;;12.87;;
9960;SDS011;5021;51.506;11.320;2024-01-30T00:40:49;15.93;;;12.23;;
9960;SDS011;5021;51.506;11.320;2024-01-30T00:43:15;17.80;;;14.13;;
9960;SDS011;5021;51.506;11.320;2024-01-30T00:45:43;16.03;;;12.80;;
9960;SDS011;5021;51.506;11.320;2024-01-30T00:48:09;17.43;;;13.43;;
9960;SDS011;5021;51.506;11.320;2024-01-30T00:50:35;19.00;;;14.37;;
9960;SDS011;5021;51.506;11.320;2024-01-30T00:53:01;16.33;;;13.90;;
9960;SDS011;5021;51.506;11.320;2024-01-30T00:55:27;18.50;;;13.63;;
9960;SDS011;5021;51.506;11.320;2024-01-30T00:57:53;15.40;;;12.57;;
9960;SDS011;5021;51.506;11.320;2024-01-30T01:00:19;17.90;;;13.87;;
9960;SDS011;5021;51.506;11.320;2024-01-30T01:02:46;18.53;;;12.83;;
9960;SDS011;5021;51.506;11.320;2024-01-30T01:05:12;17.40;;;13.23;;
9960;SDS011;5021;51.506;11.320;2024-01-30T01:07:38;15.63;;;12.57;;
9960;SDS011;5021;51.506;11.320;2024-01-30T01:10:05;16.73;;;13.60;;
9960;SDS011;5021;51.506;11.320;2024-01-30T01:12:31;16.60;;;12.90;;
9960;SDS011;5021;51.506;11.320;2024-01-30T01:14:57;16.37;;;11.87;;
9960;SDS011;5021;51.506;11.320;2024-01-30T01:17:23;17.17;;;13.47;;
9960;SDS011;5021;51.506;11.320;2024-01-30T01:19:49;16.47;;;13.47;;
9960;SDS011;5021;51.506;11.320;2024-01-30T01:22:15;17.80;;;13.27;;
9960;SDS011;5021;51.506;11.320;2024-01-30T01:24:43;14.30;;;11.77;;
9960;SDS011;5021;51.506;11.320;2024-01-30T01:27:09;15.67;;;12.33;;
9960;SDS011;5021;51.506;11.320;2024-01-30T01:29:35;17.30;;;12.93;;
9960;SDS011;5021;51.506;11.320;2024-01-30T01:32:01;14.10;;;11.70;;
9960;SDS011;5021;51.506;11.320;2024-01-30T01:34:27;16.47;;;12.43;;
9960;SDS011;5021;51.506;11.320;2024-01-30T01:36:53;18.10;;;12.90;;
9960;SDS011;5021;51.506;11.320;2024-01-30T01:39:20;20.17;;;13.17;;
9960;SDS011;5021;51.506;11.320;2024-01-30T01:41:46;15.10;;;11.43;;
9960;SDS011;5021;51.506;11.320;2024-01-30T01:44:12;19.00;;;12.87;;
9960;SDS011;5021;51.506;11.320;2024-01-30T01:46:38;14.20;;;11.70;;
9960;SDS011;5021;51.506;11.320;2024-01-30T01:49:04;13.87;;;11.70;;
9960;SDS011;5021;51.506;11.320;2024-01-30T01:51:31;15.13;;;11.70;;
9960;SDS011;5021;51.506;11.320;2024-01-30T01:53:57;15.50;;;12.23;;
9960;SDS011;5021;51.506;11.320;2024-01-30T01:56:24;16.10;;;11.53;;
9960;SDS011;5021;51.506;11.320;2024-01-30T01:58:50;14.20;;;11.20;;
9960;SDS011;5021;51.506;11.320;2024-01-30T02:01:18;15.47;;;11.67;;
9960;SDS011;5021;51.506;11.320;2024-01-30T02:03:45;14.30;;;10.93;;
9960;SDS011;5021;51.506;11.320;2024-01-30T02:06:12;15.27;;;11.60;;
9960;SDS011;5021;51.506;11.320;2024-01-30T02:08:38;12.53;;;10.30;;
9960;SDS011;5021;51.506;11.320;2024-01-30T02:11:04;13.07;;;10.93;;
9960;SDS011;5021;51.506;11.320;2024-01-30T02:13:30;16.20;;;11.33;;
9960;SDS011;5021;51.506;11.320;2024-01-30T02:15:56;17.13;;;12.20;;
9960;SDS011;5021;51.506;11.320;2024-01-30T02:18:22;15.13;;;11.23;;
9960;SDS011;5021;51.506;11.320;2024-01-30T02:20:48;16.73;;;11.13;;
9960;SDS011;5021;51.506;11.320;2024-01-30T02:23:17;14.57;;;11.73;;
9960;SDS011;5021;51.506;11.320;2024-01-30T02:25:45;14.70;;;10.90;;
9960;SDS011;5021;51.506;11.320;2024-01-30T02:28:11;16.77;;;12.03;;
9960;SDS011;5021;51.506;11.320;2024-01-30T02:30:37;15.63;;;10.63;;
9960;SDS011;5021;51.506;11.320;2024-01-30T02:33:03;13.90;;;11.90;;
9960;SDS011;5021;51.506;11.320;2024-01-30T02:35:29;15.73;;;11.30;;
9960;SDS011;5021;51.506;11.320;2024-01-30T02:37:55;18.03;;;12.43;;
9960;SDS011;5021;51.506;11.320;2024-01-30T02:40:21;14.97;;;12.07;;
9960;SDS011;5021;51.506;11.320;2024-01-30T02:42:47;18.43;;;12.33;;
9960;SDS011;5021;51.506;11.320;2024-01-30T02:45:13;16.67;;;12.27;;
9960;SDS011;5021;51.506;11.320;2024-01-30T02:47:39;19.53;;;13.03;;
9960;SDS011;5021;51.506;11.320;2024-01-30T02:50:05;14.93;;;12.13;;
9960;SDS011;5021;51.506;11.320;2024-01-30T02:52:31;17.93;;;12.67;;
9960;SDS011;5021;51.506;11.320;2024-01-30T02:54:58;15.20;;;11.53;;
9960;SDS011;5021;51.506;11.320;2024-01-30T02:57:23;18.87;;;12.33;;
9960;SDS011;5021;51.506;11.320;2024-01-30T02:59:49;16.40;;;11.70;;
9960;SDS011;5021;51.506;11.320;2024-01-30T03:02:15;17.80;;;11.13;;
9960;SDS011;5021;51.506;11.320;2024-01-30T03:04:41;22.27;;;12.33;;
9960;SDS011;5021;51.506;11.320;2024-01-30T03:07:07;16.93;;;12.03;;
9960;SDS011;5021;51.506;11.320;2024-01-30T03:09:33;15.47;;;11.27;;
9960;SDS011;5021;51.506;11.320;2024-01-30T03:11:59;15.57;;;11.27;;
9960;SDS011;5021;51.506;11.320;2024-01-30T03:14:25;14.60;;;10.97;;
9960;SDS011;5021;51.506;11.320;2024-01-30T03:16:51;13.83;;;10.60;;
9960;SDS011;5021;51.506;11.320;2024-01-30T03:19:17;13.93;;;10.67;;
9960;SDS011;5021;51.506;11.320;2024-01-30T03:21:43;13.53;;;10.37;;
9960;SDS011;5021;51.506;11.320;2024-01-30T03:24:09;11.77;;;9.90;;
9960;SDS011;5021;51.506;11.320;2024-01-30T03:26:35;11.30;;;9.73;;
9960;SDS011;5021;51.506;11.320;2024-01-30T03:29:01;13.03;;;10.37;;
9960;SDS011;5021;51.506;11.320;2024-01-30T03:31:27;12.63;;;9.60;;
9960;SDS011;5021;51.506;11.320;2024-01-30T03:33:53;11.83;;;9.83;;
9960;SDS011;5021;51.506;11.320;2024-01-30T03:36:19;11.93;;;9.67;;
9960;SDS011;5021;51.506;11.320;2024-01-30T03:38:45;11.70;;;9.07;;
9960;SDS011;5021;51.506;11.320;2024-01-30T03:41:11;12.57;;;9.90;;
9960;SDS011;5021;51.506;11.320;2024-01-30T03:43:37;13.67;;;9.70;;
9960;SDS011;5021;51.506;11.320;2024-01-30T03:46:03;12.37;;;9.50;;
9960;SDS011;5021;51.506;11.320;2024-01-30T03:48:29;11.30;;;9.70;;
9960;SDS011;5021;51.506;11.320;2024-01-30T03:50:55;11.47;;;8.77;;
9960;SDS011;5021;51.506;11.320;2024-01-30T03:53:21;12.70;;;10.73;;
9960;SDS011;5021;51.506;11.320;2024-01-30T03:55:47;12.23;;;9.03;;
9960;SDS011;5021;51.506;11.320;2024-01-30T03:58:13;16.60;;;11.43;;
9960;SDS011;5021;51.506;11.320;2024-01-30T04:00:39;14.93;;;11.33;;
9960;SDS011;5021;51.506;11.320;2024-01-30T04:03:06;15.93;;;12.07;;
9960;SDS011;5021;51.506;11.320;2024-01-30T04:05:32;13.83;;;10.70;;
9960;SDS011;5021;51.506;11.320;2024-01-30T04:07:58;16.53;;;11.77;;
9960;SDS011;5021;51.506;11.320;2024-01-30T04:10:24;12.97;;;10.37;;
9960;SDS011;5021;51.506;11.320;2024-01-30T04:12:50;14.13;;;10.53;;
9960;SDS011;5021;51.506;11.320;2024-01-30T04:15:16;12.93;;;10.20;;
9960;SDS011;5021;51.506;11.320;2024-01-30T04:17:42;16.53;;;12.73;;
9960;SDS011;5021;51.506;11.320;2024-01-30T04:20:13;13.90;;;11.33;;
9960;SDS011;5021;51.506;11.320;2024-01-30T04:22:39;21.97;;;13.87;;
9960;SDS011;5021;51.506;11.320;2024-01-30T04:25:05;19.43;;;12.90;;
9960;SDS011;5021;51.506;11.320;2024-01-30T04:27:31;16.93;;;12.43;;
9960;SDS011;5021;51.506;11.320;2024-01-30T04:29:57;19.43;;;12.20;;
9960;SDS011;5021;51.506;11.320;2024-01-30T04:32:23;14.03;;;10.80;;
9960;SDS011;5021;51.506;11.320;2024-01-30T04:34:49;16.20;;;12.60;;
9960;SDS011;5021;51.506;11.320;2024-01-30T04:37:14;15.87;;;11.60;;
9960;SDS011;5021;51.506;11.320;2024-01-30T04:39:40;15.30;;;10.73;;
9960;SDS011;5021;51.506;11.320;2024-01-30T04:42:06;15.13;;;10.80;;
9960;SDS011;5021;51.506;11.320;2024-01-30T04:44:32;14.90;;;10.77;;
9960;SDS011;5021;51.506;11.320;2024-01-30T04:46:58;11.43;;;10.23;;
9960;SDS011;5021;51.506;11.320;2024-01-30T04:49:26;16.73;;;10.77;;
9960;SDS011;5021;51.506;11.320;2024-01-30T04:51:52;14.43;;;10.90;;
9960;SDS011;5021;51.506;11.320;2024-01-30T04:54:18;13.27;;;10.40;;
9960;SDS011;5021;51.506;11.320;2024-01-30T04:56:44;12.27;;;10.03;;
9960;SDS011;5021;51.506;11.320;2024-01-30T04:59:10;16.17;;;11.00;;
9960;SDS011;5021;51.506;11.320;2024-01-30T05:01:35;14.97;;;12.30;;
9960;SDS011;5021;51.506;11.320;2024-01-30T05:04:01;15.33;;;12.50;;
9960;SDS011;5021;51.506;11.320;2024-01-30T05:06:28;16.57;;;13.10;;
9960;SDS011;5021;51.506;11.320;2024-01-30T05:08:54;16.10;;;12.27;;
9960;SDS011;5021;51.506;11.320;2024-01-30T05:11:21;21.17;;;12.17;;
9960;SDS011;5021;51.506;11.320;2024-01-30T05:13:47;16.47;;;12.63;;
9960;SDS011;5021;51.506;11.320;2024-01-30T05:16:12;15.40;;;12.30;;
9960;SDS011;5021;51.506;11.320;2024-01-30T05:18:38;16.17;;;11.83;;
9960;SDS011;5021;51.506;11.320;2024-01-30T05:21:05;15.93;;;11.60;;
9960;SDS011;5021;51.506;11.320;2024-01-30T05:23:31;13.43;;;10.80;;
9960;SDS011;5021;51.506;11.320;2024-01-30T05:25:56;12.77;;;10.60;;
9960;SDS011;5021;51.506;11.320;2024-01-30T05:28:25;14.40;;;11.77;;
9960;SDS011;5021;51.506;11.320;2024-01-30T05:30:51;17.00;;;12.37;;
9960;SDS011;5021;51.506;11.320;2024-01-30T05:33:17;17.90;;;13.63;;
9960;SDS011;5021;51.506;11.320;2024-01-30T05:35:43;15.23;;;12.80;;
9960;SDS011;5021;51.506;11.320;2024-01-30T05:38:11;14.00;;;12.07;;
9960;SDS011;5021;51.506;11.320;2024-01-30T05:40:37;15.13;;;11.67;;
9960;SDS011;5021;51.506;11.320;2024-01-30T05:43:03;16.57;;;11.70;;
9960;SDS011;5021;51.506;11.320;2024-01-30T05:45:29;13.03;;;10.23;;
9960;SDS011;5021;51.506;11.320;2024-01-30T05:47:55;13.00;;;10.53;;
9960;SDS011;5021;51.506;11.320;2024-01-30T05:50:21;15.33;;;10.27;;
9960;SDS011;5021;51.506;11.320;2024-01-30T05:52:48;12.40;;;10.70;;
9960;SDS011;5021;51.506;11.320;2024-01-30T05:55:14;12.07;;;10.30;;
9960;SDS011;5021;51.506;11.320;2024-01-30T05:57:40;13.83;;;10.43;;
9960;SDS011;5021;51.506;11.320;2024-01-30T06:00:06;12.07;;;10.27;;
9960;SDS011;5021;51.506;11.320;2024-01-30T06:02:33;18.43;;;11.63;;
9960;SDS011;5021;51.506;11.320;2024-01-30T06:04:59;13.87;;;11.87;;
9960;SDS011;5021;51.506;11.320;2024-01-30T06:07:25;14.17;;;11.33;;
9960;SDS011;5021;51.506;11.320;2024-01-30T06:09:51;16.80;;;13.03;;
9960;SDS011;5021;51.506;11.320;2024-01-30T06:12:17;19.07;;;14.83;;
9960;SDS011;5021;51.506;11.320;2024-01-30T06:14:43;18.33;;;13.87;;
9960;SDS011;5021;51.506;11.320;2024-01-30T06:17:09;18.30;;;14.80;;
9960;SDS011;5021;51.506;11.320;2024-01-30T06:19:36;19.73;;;14.73;;
9960;SDS011;5021;51.506;11.320;2024-01-30T06:22:03;20.50;;;15.87;;
9960;SDS011;5021;51.506;11.320;2024-01-30T06:24:29;19.97;;;16.07;;
9960;SDS011;5021;51.506;11.320;2024-01-30T06:26:55;18.70;;;14.37;;
9960;SDS011;5021;51.506;11.320;2024-01-30T06:29:21;19.00;;;15.63;;
9960;SDS011;5021;51.506;11.320;2024-01-30T06:31:49;17.53;;;14.77;;
9960;SDS011;5021;51.506;11.320;2024-01-30T06:34:15;16.67;;;14.00;;
9960;SDS011;5021;51.506;11.320;2024-01-30T06:36:41;17.87;;;14.30;;
9960;SDS011;5021;51.506;11.320;2024-01-30T06:39:07;15.90;;;12.83;;
9960;SDS011;5021;51.506;11.320;2024-01-30T06:41:33;17.97;;;14.47;;
9960;SDS011;5021;51.506;11.320;2024-01-30T06:44:01;17.27;;;13.07;;
9960;SDS011;5021;51.506;11.320;2024-01-30T06:46:28;16.53;;;12.83;;
9960;SDS011;5021;51.506;11.320;2024-01-30T06:48:54;20.37;;;14.23;;
9960;SDS011;5021;51.506;11.320;2024-01-30T06:51:20;21.83;;;16.07;;
9960;SDS011;5021;51.506;11.320;2024-01-30T06:53:46;28.63;;;19.67;;
9960;SDS011;5021;51.506;11.320;2024-01-30T06:56:11;29.90;;;20.00;;
9960;SDS011;5021;51.506;11.320;2024-01-30T06:58:37;31.13;;;20.30;;
9960;SDS011;5021;51.506;11.320;2024-01-30T07:01:03;36.83;;;20.23;;
9960;SDS011;5021;51.506;11.320;2024-01-30T07:03:29;28.47;;;19.10;;
9960;SDS011;5021;51.506;11.320;2024-01-30T07:05:55;27.97;;;16.90;;
9960;SDS011;5021;51.506;11.320;2024-01-30T07:08:21;25.30;;;15.80;;
9960;SDS011;5021;51.506;11.320;2024-01-30T07:10:47;36.13;;;22.00;;
9960;SDS011;5021;51.506;11.320;2024-01-30T07:13:13;23.13;;;16.00;;
9960;SDS011;5021;51.506;11.320;2024-01-30T07:15:41;32.13;;;20.90;;
9960;SDS011;5021;51.506;11.320;2024-01-30T07:18:07;28.60;;;19.63;;
9960;SDS011;5021;51.506;11.320;2024-01-30T07:20:34;28.83;;;19.70;;
9960;SDS011;5021;51.506;11.320;2024-01-30T07:23:00;26.47;;;19.37;;
9960;SDS011;5021;51.506;11.320;2024-01-30T07:25:27;39.97;;;25.83;;
9960;SDS011;5021;51.506;11.320;2024-01-30T07:27:54;34.53;;;26.17;;
9960;SDS011;5021;51.506;11.320;2024-01-30T07:30:20;38.50;;;24.27;;
9960;SDS011;5021;51.506;11.320;2024-01-30T07:32:46;33.43;;;24.37;;
9960;SDS011;5021;51.506;11.320;2024-01-30T07:35:12;33.43;;;23.63;;
9960;SDS011;5021;51.506;11.320;2024-01-30T07:37:38;36.73;;;24.60;;
9960;SDS011;5021;51.506;11.320;2024-01-30T07:40:04;35.13;;;25.37;;
9960;SDS011;5021;51.506;11.320;2024-01-30T07:42:31;33.73;;;23.70;;
9960;SDS011;5021;51.506;11.320;2024-01-30T07:44:57;32.13;;;22.90;;
9960;SDS011;5021;51.506;11.320;2024-01-30T07:47:23;33.83;;;26.03;;
9960;SDS011;5021;51.506;11.320;2024-01-30T07:49:49;31.77;;;23.63;;
9960;SDS011;5021;51.506;11.320;2024-01-30T07:52:16;31.40;;;22.37;;
9960;SDS011;5021;51.506;11.320;2024-01-30T07:54:42;29.93;;;21.67;;
9960;SDS011;5021;51.506;11.320;2024-01-30T07:57:08;31.60;;;21.60;;
9960;SDS011;5021;51.506;11.320;2024-01-30T07:59:33;29.83;;;23.27;;
9960;SDS011;5021;51.506;11.320;2024-01-30T08:01:59;31.30;;;23.33;;
9960;SDS011;5021;51.506;11.320;2024-01-30T08:04:25;27.97;;;22.00;;
9960;SDS011;5021;51.506;11.320;2024-01-30T08:06:51;33.30;;;24.53;;
9960;SDS011;5021;51.506;11.320;2024-01-30T08:09:17;39.23;;;28.10;;
9960;SDS011;5021;51.506;11.320;2024-01-30T08:11:43;32.00;;;23.87;;
9960;SDS011;5021;51.506;11.320;2024-01-30T08:14:09;35.27;;;24.87;;
9960;SDS011;5021;51.506;11.320;2024-01-30T08:16:35;30.00;;;23.07;;
9960;SDS011;5021;51.506;11.320;2024-01-30T08:19:01;33.20;;;23.97;;
9960;SDS011;5021;51.506;11.320;2024-01-30T08:21:27;31.50;;;24.03;;
9960;SDS011;5021;51.506;11.320;2024-01-30T08:23:53;29.20;;;21.43;;
9960;SDS011;5021;51.506;11.320;2024-01-30T08:26:19;30.80;;;21.87;;
9960;SDS011;5021;51.506;11.320;2024-01-30T08:28:45;28.63;;;20.27;;
9960;SDS011;5021;51.506;11.320;2024-01-30T08:31:11;20.67;;;18.03;;
9960;SDS011;5021;51.506;11.320;2024-01-30T08:33:37;23.57;;;17.20;;
9960;SDS011;5021;51.506;11.320;2024-01-30T08:36:03;27.00;;;19.90;;
9960;SDS011;5021;51.506;11.320;2024-01-30T08:38:29;25.87;;;18.57;;
9960;SDS011;5021;51.506;11.320;2024-01-30T08:40:55;21.73;;;18.23;;
9960;SDS011;5021;51.506;11.320;2024-01-30T08:43:21;27.47;;;19.73;;
9960;SDS011;5021;51.506;11.320;2024-01-30T08:45:47;22.40;;;18.50;;
9960;SDS011;5021;51.506;11.320;2024-01-30T08:48:13;22.67;;;18.70;;
9960;SDS011;5021;51.506;11.320;2024-01-30T08:50:39;22.23;;;18.03;;
9960;SDS011;5021;51.506;11.320;2024-01-30T08:53:05;21.83;;;17.87;;
9960;SDS011;5021;51.506;11.320;2024-01-30T08:55:31;22.83;;;18.17;;
9960;SDS011;5021;51.506;11.320;2024-01-30T08:57:57;20.13;;;16.13;;
9960;SDS011;5021;51.506;11.320;2024-01-30T09:00:23;18.53;;;15.53;;
9960;SDS011;5021;51.506;11.320;2024-01-30T09:02:49;16.73;;;14.57;;
9960;SDS011;5021;51.506;11.320;2024-01-30T09:05:15;16.80;;;13.63;;
9960;SDS011;5021;51.506;11.320;2024-01-30T09:07:41;15.47;;;13.17;;
9960;SDS011;5021;51.506;11.320;2024-01-30T09:10:07;17.40;;;14.90;;
9960;SDS011;5021;51.506;11.320;2024-01-30T09:12:33;15.57;;;13.37;;
9960;SDS011;5021;51.506;11.320;2024-01-30T09:14:59;19.93;;;15.03;;
9960;SDS011;5021;51.506;11.320;2024-01-30T09:17:25;14.87;;;13.37;;
9960;SDS011;5021;51.506;11.320;2024-01-30T09:19:51;14.80;;;12.70;;
9960;SDS011;5021;51.506;11.320;2024-01-30T09:22:17;13.90;;;12.27;;
9960;SDS011;5021;51.506;11.320;2024-01-30T09:24:43;18.10;;;14.20;;
9960;SDS011;5021;51.506;11.320;2024-01-30T09:27:09;14.10;;;12.17;;
9960;SDS011;5021;51.506;11.320;2024-01-30T09:29:35;14.60;;;12.17;;
9960;SDS011;5021;51.506;11.320;2024-01-30T09:32:01;16.47;;;14.33;;
9960;SDS011;5021;51.506;11.320;2024-01-30T09:34:27;20.20;;;17.07;;
9960;SDS011;5021;51.506;11.320;2024-01-30T09:36:53;21.73;;;17.63;;
9960;SDS011;5021;51.506;11.320;2024-01-30T09:39:19;23.00;;;18.30;;
9960;SDS011;5021;51.506;11.320;2024-01-30T09:41:48;19.97;;;16.73;;
9960;SDS011;5021;51.506;11.320;2024-01-30T09:44:17;19.03;;;15.00;;
9960;SDS011;5021;51.506;11.320;2024-01-30T09:46:46;18.43;;;14.70;;
9960;SDS011;5021;51.506;11.320;2024-01-30T09:49:15;15.03;;;12.93;;
9960;SDS011;5021;51.506;11.320;2024-01-30T09:51:43;16.63;;;14.00;;
9960;SDS011;5021;51.506;11.320;2024-01-30T09:54:10;16.97;;;12.83;;
9960;SDS011;5021;51.506;11.320;2024-01-30T09:56:36;14.80;;;13.03;;
9960;SDS011;5021;51.506;11.320;2024-01-30T09:59:02;13.17;;;11.40;;
9960;SDS011;5021;51.506;11.320;2024-01-30T10:01:28;14.53;;;12.33;;
9960;SDS011;5021;51.506;11.320;2024-01-30T10:03:54;14.03;;;12.10;;
9960;SDS011;5021;51.506;11.320;2024-01-30T10:06:20;13.07;;;10.83;;
9960;SDS011;5021;51.506;11.320;2024-01-30T10:08:47;13.83;;;12.07;;
9960;SDS011;5021;51.506;11.320;2024-01-30T10:11:13;14.00;;;11.80;;
9960;SDS011;5021;51.506;11.320;2024-01-30T10:13:39;14.03;;;10.17;;
9960;SDS011;5021;51.506;11.320;2024-01-30T10:16:06;12.23;;;10.53;;
9960;SDS011;5021;51.506;11.320;2024-01-30T10:18:32;13.77;;;11.07;;
9960;SDS011;5021;51.506;11.320;2024-01-30T10:20:58;11.93;;;10.03;;
9960;SDS011;5021;51.506;11.320;2024-01-30T10:23:24;11.37;;;9.77;;
9960;SDS011;5021;51.506;11.320;2024-01-30T10:25:51;12.63;;;9.77;;
9960;SDS011;5021;51.506;11.320;2024-01-30T10:28:17;10.77;;;9.67;;
9960;SDS011;5021;51.506;11.320;2024-01-30T10:30:43;15.73;;;10.93;;
9960;SDS011;5021;51.506;11.320;2024-01-30T10:33:09;12.77;;;10.53;;
9960;SDS011;5021;51.506;11.320;2024-01-30T10:35:35;12.57;;;10.50;;
9960;SDS011;5021;51.506;11.320;2024-01-30T10:38:01;12.20;;;10.27;;
9960;SDS011;5021;51.506;11.320;2024-01-30T10:40:28;14.50;;;11.37;;
9960;SDS011;5021;51.506;11.320;2024-01-30T10:42:54;15.93;;;11.10;;
9960;SDS011;5021;51.506;11.320;2024-01-30T10:45:21;15.67;;;10.23;;
9960;SDS011;5021;51.506;11.320;2024-01-30T10:47:52;11.13;;;9.40;;
9960;SDS011;5021;51.506;11.320;2024-01-30T10:50:18;11.23;;;9.47;;
9960;SDS011;5021;51.506;11.320;2024-01-30T10:52:45;11.77;;;10.57;;
9960;SDS011;5021;51.506;11.320;2024-01-30T10:55:12;11.37;;;9.77;;
9960;SDS011;5021;51.506;11.320;2024-01-30T10:57:38;11.77;;;10.30;;
9960;SDS011;5021;51.506;11.320;2024-01-30T11:00:08;11.27;;;9.07;;
9960;SDS011;5021;51.506;11.320;2024-01-30T11:02:38;11.80;;;9.27;;
9960;SDS011;5021;51.506;11.320;2024-01-30T11:05:05;11.37;;;9.20;;
9960;SDS011;5021;51.506;11.320;2024-01-30T11:07:31;11.87;;;9.50;;
9960;SDS011;5021;51.506;11.320;2024-01-30T11:12:24;13.90;;;9.97;;
9960;SDS011;5021;51.506;11.320;2024-01-30T11:15:01;9.93;;;8.93;;
9960;SDS011;5021;51.506;11.320;2024-01-30T11:17:29;10.67;;;9.50;;
9960;SDS011;5021;51.506;11.320;2024-01-30T11:20:05;10.73;;;9.53;;
9960;SDS011;5021;51.506;11.320;2024-01-30T11:22:33;10.63;;;9.37;;
9960;SDS011;5021;51.506;11.320;2024-01-30T11:24:59;11.27;;;9.57;;
9960;SDS011;5021;51.506;11.320;2024-01-30T11:27:25;10.03;;;9.03;;
9960;SDS011;5021;51.506;11.320;2024-01-30T11:29:52;11.63;;;9.27;;
9960;SDS011;5021;51.506;11.320;2024-01-30T11:32:22;11.50;;;9.37;;
9960;SDS011;5021;51.506;11.320;2024-01-30T11:34:49;12.43;;;10.17;;
9960;SDS011;5021;51.506;11.320;2024-01-30T11:37:15;13.80;;;10.43;;
9960;SDS011;5021;51.506;11.320;2024-01-30T11:39:41;13.13;;;10.87;;
9960;SDS011;5021;51.506;11.320;2024-01-30T11:42:08;12.93;;;10.03;;
9960;SDS011;5021;51.506;11.320;2024-01-30T11:44:34;12.57;;;11.03;;
9960;SDS011;5021;51.506;11.320;2024-01-30T11:47:00;11.87;;;9.97;;
9960;SDS011;5021;51.506;11.320;2024-01-30T11:49:28;11.60;;;9.57;;
9960;SDS011;5021;51.506;11.320;2024-01-30T11:51:54;12.40;;;9.87;;
9960;SDS011;5021;51.506;11.320;2024-01-30T11:54:20;13.60;;;10.50;;
9960;SDS011;5021;51.506;11.320;2024-01-30T11:56:46;12.23;;;9.97;;
9960;SDS011;5021;51.506;11.320;2024-01-30T11:59:12;13.83;;;11.40;;
9960;SDS011;5021;51.506;11.320;2024-01-30T12:01:39;16.07;;;10.67;;
9960;SDS011;5021;51.506;11.320;2024-01-30T12:04:05;11.03;;;9.80;;
9960;SDS011;5021;51.506;11.320;2024-01-30T12:06:33;10.30;;;9.17;;
9960;SDS011;5021;51.506;11.320;2024-01-30T12:09:00;11.10;;;9.37;;
9960;SDS011;5021;51.506;11.320;2024-01-30T12:11:31;10.80;;;9.67;;
9960;SDS011;5021;51.506;11.320;2024-01-30T12:13:57;10.20;;;9.20;;
9960;SDS011;5021;51.506;11.320;2024-01-30T12:16:23;11.67;;;10.00;;
9960;SDS011;5021;51.506;11.320;2024-01-30T12:18:49;11.83;;;10.57;;
9960;SDS011;5021;51.506;11.320;2024-01-30T12:21:18;11.33;;;9.63;;
9960;SDS011;5021;51.506;11.320;2024-01-30T12:23:44;10.93;;;9.83;;
9960;SDS011;5021;51.506;11.320;2024-01-30T12:26:10;12.30;;;10.47;;
9960;SDS011;5021;51.506;11.320;2024-01-30T12:28:36;12.73;;;10.70;;
9960;SDS011;5021;51.506;11.320;2024-01-30T12:31:05;13.37;;;10.67;;
9960;SDS011;5021;51.506;11.320;2024-01-30T12:33:31;11.97;;;10.67;;
9960;SDS011;5021;51.506;11.320;2024-01-30T12:36:00;13.13;;;10.60;;
9960;SDS011;5021;51.506;11.320;2024-01-30T12:38:27;12.23;;;9.33;;
9960;SDS011;5021;51.506;11.320;2024-01-30T12:40:56;13.87;;;9.60;;
9960;SDS011;5021;51.506;11.320;2024-01-30T12:43:23;12.53;;;9.93;;
9960;SDS011;5021;51.506;11.320;2024-01-30T12:45:49;15.27;;;11.83;;
9960;SDS011;5021;51.506;11.320;2024-01-30T12:48:15;15.17;;;11.33;;
9960;SDS011;5021;51.506;11.320;2024-01-30T12:50:41;11.43;;;10.10;;
9960;SDS011;5021;51.506;11.320;2024-01-30T12:53:07;12.13;;;10.40;;
9960;SDS011;5021;51.506;11.320;2024-01-30T12:55:34;11.17;;;9.97;;
9960;SDS011;5021;51.506;11.320;2024-01-30T12:58:00;12.77;;;11.23;;
9960;SDS011;5021;51.506;11.320;2024-01-30T13:00:26;12.57;;;10.40;;
9960;SDS011;5021;51.506;11.320;2024-01-30T13:02:52;12.87;;;10.60;;
9960;SDS011;5021;51.506;11.320;2024-01-30T13:05:18;12.00;;;10.37;;
9960;SDS011;5021;51.506;11.320;2024-01-30T13:07:44;13.63;;;11.93;;
9960;SDS011;5021;51.506;11.320;2024-01-30T13:10:10;14.20;;;11.93;;
9960;SDS011;5021;51.506;11.320;2024-01-30T13:12:36;12.40;;;11.10;;
9960;SDS011;5021;51.506;11.320;2024-01-30T13:15:03;14.77;;;10.77;;
9960;SDS011;5021;51.506;11.320;2024-01-30T13:17:30;11.50;;;10.37;;
9960;SDS011;5021;51.506;11.320;2024-01-30T13:19:56;11.30;;;10.00;;
9960;SDS011;5021;51.506;11.320;2024-01-30T13:22:22;12.60;;;11.20;;
9960;SDS011;5021;51.506;11.320;2024-01-30T13:24:48;13.27;;;10.63;;
9960;SDS011;5021;51.506;11.320;2024-01-30T13:27:14;13.83;;;10.20;;
9960;SDS011;5021;51.506;11.320;2024-01-30T13:29:40;12.27;;;10.50;;
9960;SDS011;5021;51.506;11.320;2024-01-30T13:32:06;12.63;;;10.43;;
9960;SDS011;5021;51.506;11.320;2024-01-30T13:34:32;14.27;;;10.37;;
9960;SDS011;5021;51.506;11.320;2024-01-30T13:36:58;11.83;;;10.40;;
9960;SDS011;5021;51.506;11.320;2024-01-30T13:39:23;13.70;;;10.37;;
9960;SDS011;5021;51.506;11.320;2024-01-30T13:41:49;12.53;;;10.47;;
9960;SDS011;5021;51.506;11.320;2024-01-30T13:44:16;12.57;;;10.63;;
9960;SDS011;5021;51.506;11.320;2024-01-30T13:46:42;12.37;;;11.07;;
9960;SDS011;5021;51.506;11.320;2024-01-30T13:49:08;11.67;;;9.80;;
9960;SDS011;5021;51.506;11.320;2024-01-30T13:51:34;13.67;;;10.50;;
9960;SDS011;5021;51.506;11.320;2024-01-30T13:54:00;13.90;;;11.17;;
9960;SDS011;5021;51.506;11.320;2024-01-30T13:56:26;16.37;;;10.83;;
9960;SDS011;5021;51.506;11.320;2024-01-30T13:58:52;11.63;;;10.03;;
9960;SDS011;5021;51.506;11.320;2024-01-30T14:01:20;10.97;;;9.57;;
9960;SDS011;5021;51.506;11.320;2024-01-30T14:03:46;12.20;;;9.83;;
9960;SDS011;5021;51.506;11.320;2024-01-30T14:06:12;11.77;;;10.13;;
9960;SDS011;5021;51.506;11.320;2024-01-30T14:08:38;13.33;;;9.90;;
9960;SDS011;5021;51.506;11.320;2024-01-30T14:11:04;12.13;;;10.40;;
9960;SDS011;5021;51.506;11.320;2024-01-30T14:13:30;15.20;;;12.23;;
9960;SDS011;5021;51.506;11.320;2024-01-30T14:15:57;14.03;;;10.90;;
9960;SDS011;5021;51.506;11.320;2024-01-30T14:18:23;12.97;;;10.03;;
9960;SDS011;5021;51.506;11.320;2024-01-30T14:20:50;13.40;;;10.80;;
9960;SDS011;5021;51.506;11.320;2024-01-30T14:23:17;17.13;;;11.03;;
9960;SDS011;5021;51.506;11.320;2024-01-30T14:25:43;12.00;;;10.63;;
9960;SDS011;5021;51.506;11.320;2024-01-30T14:28:09;12.80;;;11.17;;
9960;SDS011;5021;51.506;11.320;2024-01-30T14:30:35;12.37;;;8.87;;
9960;SDS011;5021;51.506;11.320;2024-01-30T14:33:01;13.77;;;10.13;;